Time,TemperatureF,DewpointF,PressureIn,WindDirection,WindDirectionDegrees,WindSpeedMPH,WindSpeedGustMPH,Humidity,HourlyPrecipIn,Conditions,Clouds,dailyrainin,SolarRadiationWatts/m^2,SoftwareType,DateUTC
2013-01-18 00:12:00,6.0,1.0,-100.00,ESE,122,0.0,0.0,81,0.00,,,0.00,0.000000,,2013-01-18 07:12:00,
2013-01-18 00:22:00,6.0,1.0,-100.00,ESE,122,0.0,0.0,81,0.00,,,0.00,0.000000,,2013-01-18 07:22:00,
2013-01-18 00:32:00,6.0,1.0,-100.00,ESE,122,0.0,0.0,81,0.00,,,0.00,0.000000,,2013-01-18 07:32:00,
2013-01-18 00:52:00,5.0,0.0,-100.00,SW,221,0.0,0.0,78,0.00,,,0.00,0.000000,,2013-01-18 07:52:00,
2013-01-18 01:12:00,5.0,0.0,-100.00,SW,221,0.0,0.0,78,0.00,,,0.00,0.000000,,2013-01-18 08:12:00,
2013-01-18 01:22:00,5.0,0.0,-100.00,SW,221,0.0,0.0,78,0.00,,,0.00,0.000000,,2013-01-18 08:22:00,
2013-01-18 01:32:00,5.0,0.0,-100.00,SW,221,0.0,0.0,78,0.00,,,0.00,0.000000,,2013-01-18 08:32:00,
2013-01-18 01:42:00,5.0,0.0,-100.00,SW,221,0.0,0.0,78,0.00,,,0.00,0.000000,,2013-01-18 08:42:00,
2013-01-18 01:52:00,3.0,-3.0,-100.00,ENE,77,0.0,4.0,74,0.00,,,0.00,0.000000,,2013-01-18 08:52:00,
2013-01-18 02:12:00,3.0,-3.0,-100.00,ENE,77,0.0,4.0,74,0.00,,,0.00,0.000000,,2013-01-18 09:12:00,
2013-01-18 02:22:00,3.0,-3.0,-100.00,ENE,77,0.0,4.0,74,0.00,,,0.00,0.000000,,2013-01-18 09:22:00,
2013-01-18 02:32:00,3.0,-3.0,-100.00,ENE,77,0.0,4.0,74,0.00,,,0.00,0.000000,,2013-01-18 09:32:00,
2013-01-18 02:42:00,3.0,-3.0,-100.00,ENE,77,0.0,4.0,74,0.00,,,0.00,0.000000,,2013-01-18 09:42:00,
2013-01-18 02:52:00,2.0,-4.0,-100.00,ENE,66,0.0,2.0,74,0.00,,,0.00,0.000000,,2013-01-18 09:52:00,
2013-01-18 03:12:00,2.0,-4.0,-100.00,ENE,66,0.0,2.0,74,0.00,,,0.00,0.000000,,2013-01-18 10:12:00,
2013-01-18 03:22:00,2.0,-4.0,-100.00,ENE,66,0.0,2.0,74,0.00,,,0.00,0.000000,,2013-01-18 10:22:00,
2013-01-18 03:32:00,2.0,-4.0,-100.00,ENE,66,0.0,2.0,74,0.00,,,0.00,0.000000,,2013-01-18 10:32:00,
2013-01-18 03:42:00,2.0,-4.0,-100.00,ENE,66,0.0,2.0,74,0.00,,,0.00,0.000000,,2013-01-18 10:42:00,
2013-01-18 03:52:00,3.0,-3.0,-100.00,NNE,26,0.0,2.0,75,0.00,,,0.00,0.000000,,2013-01-18 10:52:00,
2013-01-18 04:12:00,3.0,-3.0,-100.00,NNE,26,0.0,2.0,75,0.00,,,0.00,0.000000,,2013-01-18 11:12:00,
2013-01-18 04:22:00,3.0,-3.0,-100.00,NNE,26,0.0,2.0,75,0.00,,,0.00,0.000000,,2013-01-18 11:22:00,
2013-01-18 04:32:00,3.0,-3.0,-100.00,NNE,26,0.0,2.0,75,0.00,,,0.00,0.000000,,2013-01-18 11:32:00,
2013-01-18 04:42:00,3.0,-3.0,-100.00,NNE,26,0.0,2.0,75,0.00,,,0.00,0.000000,,2013-01-18 11:42:00,
2013-01-18 04:52:00,4.0,-1.0,-100.00,ENE,69,0.0,5.0,79,0.00,,,0.00,0.000000,,2013-01-18 11:52:00,
2013-01-18 05:12:00,4.0,-1.0,-100.00,ENE,69,0.0,5.0,79,0.00,,,0.00,0.000000,,2013-01-18 12:12:00,
2013-01-18 05:22:00,4.0,-1.0,-100.00,ENE,69,0.0,5.0,79,0.00,,,0.00,0.000000,,2013-01-18 12:22:00,
2013-01-18 05:32:00,4.0,-1.0,-100.00,ENE,69,0.0,5.0,79,0.00,,,0.00,0.000000,,2013-01-18 12:32:00,
2013-01-18 05:42:00,4.0,-1.0,-100.00,ENE,69,0.0,5.0,79,0.00,,,0.00,0.000000,,2013-01-18 12:42:00,
2013-01-18 05:52:00,2.0,-4.0,-100.00,ENE,65,0.0,4.0,74,0.00,,,-99.99,0.000000,,2013-01-18 12:52:00,
2013-01-18 06:12:00,2.0,-4.0,-100.00,ENE,65,0.0,4.0,74,0.00,,,-99.99,0.000000,,2013-01-18 13:12:00,
2013-01-18 06:22:00,2.0,-4.0,-100.00,ENE,65,0.0,4.0,74,0.00,,,-99.99,0.000000,,2013-01-18 13:22:00,
2013-01-18 06:33:00,2.0,-4.0,-100.00,ENE,65,0.0,4.0,74,0.00,,,-99.99,0.000000,,2013-01-18 13:33:00,
2013-01-18 06:42:00,2.0,-4.0,-100.00,ENE,65,0.0,4.0,74,0.00,,,-99.99,0.000000,,2013-01-18 13:42:00,
2013-01-18 06:52:00,1.0,-6.0,-100.00,East,80,0.0,2.0,72,0.00,,,-99.99,0.000000,,2013-01-18 13:52:00,
2013-01-18 07:22:00,1.0,-6.0,-100.00,East,80,0.0,2.0,72,0.00,,,-99.99,0.000000,,2013-01-18 14:22:00,
2013-01-18 07:33:00,1.0,-6.0,-100.00,East,80,0.0,2.0,72,0.00,,,-99.99,0.000000,,2013-01-18 14:33:00,
2013-01-18 07:42:00,1.0,-6.0,-100.00,East,80,0.0,2.0,72,0.00,,,-99.99,0.000000,,2013-01-18 14:42:00,
2013-01-18 07:52:00,2.0,-4.0,-100.00,ENE,71,0.0,4.0,75,0.00,,,0.00,0.000000,,2013-01-18 14:52:00,
2013-01-18 08:12:00,2.0,-4.0,-100.00,ENE,71,0.0,4.0,75,0.00,,,0.00,0.000000,,2013-01-18 15:12:00,
2013-01-18 08:23:00,2.0,-4.0,-100.00,ENE,71,0.0,4.0,75,0.00,,,0.00,0.000000,,2013-01-18 15:23:00,
2013-01-18 08:33:00,2.0,-4.0,-100.00,ENE,71,0.0,4.0,75,0.00,,,0.00,0.000000,,2013-01-18 15:33:00,
2013-01-18 08:42:00,2.0,-4.0,-100.00,ENE,71,0.0,4.0,75,0.00,,,0.00,0.000000,,2013-01-18 15:42:00,
2013-01-18 08:52:00,7.0,0.0,-100.00,ENE,61,0.0,2.0,71,0.00,,,0.00,30.000000,,2013-01-18 15:52:00,
2013-01-18 09:12:00,7.0,0.0,-100.00,ENE,61,0.0,2.0,71,0.00,,,0.00,30.000000,,2013-01-18 16:12:00,
2013-01-18 09:23:00,7.0,0.0,-100.00,ENE,61,0.0,2.0,71,0.00,,,0.00,30.000000,,2013-01-18 16:23:00,
2013-01-18 09:33:00,7.0,0.0,-100.00,ENE,61,0.0,2.0,71,0.00,,,0.00,30.000000,,2013-01-18 16:33:00,
2013-01-18 09:42:00,7.0,0.0,-100.00,ENE,61,0.0,2.0,71,0.00,,,0.00,30.000000,,2013-01-18 16:42:00,
2013-01-18 09:52:00,15.0,7.0,-100.00,ENE,75,0.0,0.0,69,0.00,,,0.00,105.000000,,2013-01-18 16:52:00,
2013-01-18 10:13:00,15.0,7.0,-100.00,ENE,75,0.0,0.0,69,0.00,,,0.00,105.000000,,2013-01-18 17:13:00,
2013-01-18 10:23:00,15.0,7.0,-100.00,ENE,75,0.0,0.0,69,0.00,,,0.00,105.000000,,2013-01-18 17:23:00,
2013-01-18 10:42:00,15.0,7.0,-100.00,ENE,75,0.0,0.0,69,0.00,,,0.00,105.000000,,2013-01-18 17:42:00,
2013-01-18 10:52:00,18.0,4.0,-100.00,NNW,347,0.0,2.0,54,0.00,,,0.00,223.000000,,2013-01-18 17:52:00,
2013-01-18 11:12:00,18.0,4.0,-100.00,NNW,347,0.0,2.0,54,0.00,,,0.00,223.000000,,2013-01-18 18:12:00,
2013-01-18 11:23:00,18.0,4.0,-100.00,NNW,347,0.0,2.0,54,0.00,,,0.00,223.000000,,2013-01-18 18:23:00,
2013-01-18 11:33:00,18.0,4.0,-100.00,NNW,347,0.0,2.0,54,0.00,,,0.00,223.000000,,2013-01-18 18:33:00,
2013-01-18 11:43:00,18.0,4.0,-100.00,NNW,347,0.0,2.0,54,0.00,,,0.00,223.000000,,2013-01-18 18:43:00,
2013-01-18 11:52:00,22.0,4.0,-100.00,East,84,0.0,4.0,45,0.00,,,0.00,355.000000,,2013-01-18 18:52:00,
2013-01-18 12:12:00,22.0,4.0,-100.00,East,84,0.0,4.0,45,0.00,,,0.00,355.000000,,2013-01-18 19:12:00,
2013-01-18 12:22:00,22.0,4.0,-100.00,East,84,0.0,4.0,45,0.00,,,0.00,355.000000,,2013-01-18 19:22:00,
2013-01-18 12:33:00,22.0,4.0,-100.00,East,84,0.0,4.0,45,0.00,,,0.00,355.000000,,2013-01-18 19:33:00,
2013-01-18 12:42:00,22.0,4.0,-100.00,East,84,0.0,4.0,45,0.00,,,0.00,355.000000,,2013-01-18 19:42:00,
2013-01-18 12:52:00,23.0,5.0,-100.00,NW,304,1.0,6.0,45,0.00,,,0.00,448.000000,,2013-01-18 19:52:00,
2013-01-18 13:12:00,23.0,5.0,-100.00,NW,304,1.0,6.0,45,0.00,,,0.00,448.000000,,2013-01-18 20:12:00,
2013-01-18 13:22:00,23.0,5.0,-100.00,NW,304,1.0,6.0,45,0.00,,,0.00,448.000000,,2013-01-18 20:22:00,
2013-01-18 13:33:00,23.0,5.0,-100.00,NW,304,1.0,6.0,45,0.00,,,0.00,448.000000,,2013-01-18 20:33:00,
2013-01-18 13:42:00,23.0,5.0,-100.00,NW,304,1.0,6.0,45,0.00,,,0.00,448.000000,,2013-01-18 20:42:00,
2013-01-18 14:22:00,23.0,5.0,-100.00,WNW,300,0.0,5.0,45,0.00,,,0.00,442.000000,,2013-01-18 21:22:00,
2013-01-18 14:33:00,23.0,5.0,-100.00,WNW,300,0.0,5.0,45,0.00,,,0.00,442.000000,,2013-01-18 21:33:00,
2013-01-18 14:52:00,29.0,7.0,-100.00,NW,313,0.0,7.0,39,0.00,,,0.00,377.000000,,2013-01-18 21:52:00,
2013-01-18 15:12:00,29.0,7.0,-100.00,NW,313,0.0,7.0,39,0.00,,,0.00,377.000000,,2013-01-18 22:12:00,
2013-01-18 15:22:00,29.0,7.0,-100.00,NW,313,0.0,7.0,39,0.00,,,0.00,377.000000,,2013-01-18 22:22:00,
2013-01-18 15:32:00,29.0,7.0,-100.00,NW,313,0.0,7.0,39,0.00,,,0.00,377.000000,,2013-01-18 22:32:00,
2013-01-18 15:42:00,29.0,7.0,-100.00,NW,313,0.0,7.0,39,0.00,,,0.00,377.000000,,2013-01-18 22:42:00,
2013-01-18 15:52:00,29.0,5.0,-100.00,South,176,0.0,3.0,35,0.00,,,0.00,270.000000,,2013-01-18 22:52:00,
2013-01-18 16:12:00,29.0,5.0,-100.00,South,176,0.0,3.0,35,0.00,,,0.00,270.000000,,2013-01-18 23:12:00,
2013-01-18 16:22:00,29.0,5.0,-100.00,South,176,0.0,3.0,35,0.00,,,0.00,270.000000,,2013-01-18 23:22:00,
2013-01-18 16:32:00,29.0,5.0,-100.00,South,176,0.0,3.0,35,0.00,,,0.00,270.000000,,2013-01-18 23:32:00,
2013-01-18 16:42:00,29.0,5.0,-100.00,South,176,0.0,3.0,35,0.00,,,0.00,270.000000,,2013-01-18 23:42:00,
2013-01-18 16:52:00,25.0,6.0,-100.00,East,92,0.0,3.0,44,0.00,,,-99.99,127.000000,,2013-01-18 23:52:00,
2013-01-18 17:12:00,25.0,6.0,-100.00,East,92,0.0,3.0,44,0.00,,,-99.99,127.000000,,2013-01-19 00:12:00,
2013-01-18 17:22:00,25.0,6.0,-100.00,East,92,0.0,3.0,44,0.00,,,-99.99,127.000000,,2013-01-19 00:22:00,
2013-01-18 17:32:00,25.0,6.0,-100.00,East,92,0.0,3.0,44,0.00,,,-99.99,127.000000,,2013-01-19 00:32:00,
2013-01-18 17:42:00,25.0,6.0,-100.00,East,92,0.0,3.0,44,0.00,,,-99.99,127.000000,,2013-01-19 00:42:00,
2013-01-18 17:52:00,18.0,5.0,-100.00,WNW,289,0.0,0.0,56,0.00,,,0.00,10.000000,,2013-01-19 00:52:00,
2013-01-18 18:22:00,18.0,5.0,-100.00,WNW,289,0.0,0.0,56,0.00,,,0.00,10.000000,,2013-01-19 01:22:00,
2013-01-18 18:32:00,18.0,5.0,-100.00,WNW,289,0.0,0.0,56,0.00,,,0.00,10.000000,,2013-01-19 01:32:00,
2013-01-18 18:42:00,18.0,5.0,-100.00,WNW,289,0.0,0.0,56,0.00,,,0.00,10.000000,,2013-01-19 01:42:00,
2013-01-18 18:52:00,16.0,8.0,-100.00,ESE,104,0.0,3.0,71,0.00,,,0.00,0.000000,,2013-01-19 01:52:00,
2013-01-18 19:12:00,16.0,8.0,-100.00,ESE,104,0.0,3.0,71,0.00,,,0.00,0.000000,,2013-01-19 02:12:00,
2013-01-18 19:22:00,16.0,8.0,-100.00,ESE,104,0.0,3.0,71,0.00,,,0.00,0.000000,,2013-01-19 02:22:00,
2013-01-18 19:32:00,16.0,8.0,-100.00,ESE,104,0.0,3.0,71,0.00,,,0.00,0.000000,,2013-01-19 02:32:00,
2013-01-18 19:42:00,16.0,8.0,-100.00,ESE,104,0.0,3.0,71,0.00,,,0.00,0.000000,,2013-01-19 02:42:00,
2013-01-18 19:52:00,13.0,7.0,-100.00,ENE,77,4.0,7.0,75,0.00,,,0.00,0.000000,,2013-01-19 02:52:00,
2013-01-18 20:12:00,13.0,7.0,-100.00,ENE,77,4.0,7.0,75,0.00,,,0.00,0.000000,,2013-01-19 03:12:00,
2013-01-18 20:22:00,13.0,7.0,-100.00,ENE,77,4.0,7.0,75,0.00,,,0.00,0.000000,,2013-01-19 03:22:00,
2013-01-18 20:32:00,13.0,7.0,-100.00,ENE,77,4.0,7.0,75,0.00,,,0.00,0.000000,,2013-01-19 03:32:00,
2013-01-18 20:42:00,13.0,7.0,-100.00,ENE,77,4.0,7.0,75,0.00,,,0.00,0.000000,,2013-01-19 03:42:00,
2013-01-18 20:52:00,13.0,9.0,-100.00,North,4,0.0,6.0,82,0.00,,,0.00,0.000000,,2013-01-19 03:52:00,
2013-01-18 21:12:00,13.0,9.0,-100.00,North,4,0.0,6.0,82,0.00,,,0.00,0.000000,,2013-01-19 04:12:00,
2013-01-18 21:22:00,13.0,9.0,-100.00,North,4,0.0,6.0,82,0.00,,,0.00,0.000000,,2013-01-19 04:22:00,
2013-01-18 21:32:00,13.0,9.0,-100.00,North,4,0.0,6.0,82,0.00,,,0.00,0.000000,,2013-01-19 04:32:00,
2013-01-18 21:42:00,13.0,9.0,-100.00,North,4,0.0,6.0,82,0.00,,,0.00,0.000000,,2013-01-19 04:42:00,
2013-01-18 21:52:00,12.0,7.0,-100.00,West,270,0.0,9.0,81,0.00,,,0.00,0.000000,,2013-01-19 04:52:00,
2013-01-18 22:12:00,12.0,7.0,-100.00,West,270,0.0,9.0,81,0.00,,,0.00,0.000000,,2013-01-19 05:12:00,
2013-01-18 22:22:00,12.0,7.0,-100.00,West,270,0.0,9.0,81,0.00,,,0.00,0.000000,,2013-01-19 05:22:00,
2013-01-18 22:32:00,12.0,7.0,-100.00,West,270,0.0,9.0,81,0.00,,,0.00,0.000000,,2013-01-19 05:32:00,
2013-01-18 22:42:00,12.0,7.0,-100.00,West,270,0.0,9.0,81,0.00,,,0.00,0.000000,,2013-01-19 05:42:00,
2013-01-18 22:52:00,11.0,6.0,-100.00,NE,55,0.0,9.0,79,0.00,,,0.00,0.000000,,2013-01-19 05:52:00,
2013-01-18 23:12:00,11.0,6.0,-100.00,NE,55,0.0,9.0,79,0.00,,,0.00,0.000000,,2013-01-19 06:12:00,
2013-01-18 23:22:00,11.0,6.0,-100.00,NE,55,0.0,9.0,79,0.00,,,0.00,0.000000,,2013-01-19 06:22:00,
2013-01-18 23:32:00,11.0,6.0,-100.00,NE,55,0.0,9.0,79,0.00,,,0.00,0.000000,,2013-01-19 06:32:00,
2013-01-18 23:42:00,11.0,6.0,-100.00,NE,55,0.0,9.0,79,0.00,,,0.00,0.000000,,2013-01-19 06:42:00,
2013-01-18 23:52:00,9.0,3.0,-100.00,SSE,149,2.0,7.0,76,0.00,,,0.00,0.000000,,2013-01-19 06:52:00,